Time;durP1;ratioP1;P1;durP2;ratioP2;P2;SDS_P1;SDS_P2;PMS_P1;PMS_P2;Temp;Humidity;BMP_temperature;BMP_pressure;BME280_temperature;BME280_humidity;BME280_pressure;Samples;Min_cycle;Max_cycle;Signal;HPM_P1;HPM_P2
2021/04/18 00:00:20;;;;;;;13.68;6.40;;;;;;;18.78;46.85;101994.00;489331;28;878;-64
2021/04/18 00:00:35;;;;;;;12.82;6.53;;;;;;;18.78;46.53;101994.84;486945;28;65996;-64
2021/04/18 00:00:49;;;;;;;13.90;6.60;;;;;;;18.77;46.32;102001.28;488533;28;862;-64
2021/04/18 00:01:04;;;;;;;13.73;6.63;;;;;;;18.77;46.53;101995.84;489286;28;811;-64
2021/04/18 00:01:19;;;;;;;11.93;6.50;;;;;;;18.77;46.88;101998.56;489236;28;901;-64
2021/04/18 00:01:33;;;;;;;11.20;6.23;;;;;;;18.75;46.72;101997.88;489218;28;775;-64
2021/04/18 00:01:48;;;;;;;10.85;6.32;;;;;;;18.75;46.49;101997.88;489318;28;898;-64
2021/04/18 00:02:02;;;;;;;12.73;6.80;;;;;;;18.76;46.58;101994.16;489380;28;858;-64
2021/04/18 00:02:17;;;;;;;12.88;6.75;;;;;;;18.76;46.67;101999.56;489493;28;855;-64
2021/04/18 00:02:31;;;;;;;13.07;6.83;;;;;;;18.77;46.74;101989.56;489176;28;961;-64
2021/04/18 00:02:47;;;;;;;13.13;6.47;;;;;;;18.77;46.96;101995.00;489346;28;981;-64
2021/04/18 00:03:02;;;;;;;13.50;5.82;;;;;;;18.75;47.04;101997.03;489368;28;950;-64
2021/04/18 00:03:16;;;;;;;15.52;6.22;;;;;;;18.75;46.81;101992.44;489056;28;1497;-64
2021/04/18 00:03:31;;;;;;;14.20;6.20;;;;;;;18.76;46.84;101996.00;489383;28;889;-64
2021/04/18 00:03:45;;;;;;;12.97;6.30;;;;;;;18.75;46.90;101995.16;489472;28;884;-64
2021/04/18 00:04:00;;;;;;;12.23;6.45;;;;;;;18.75;46.29;102000.59;489465;28;838;-64
2021/04/18 00:04:14;;;;;;;11.83;6.60;;;;;;;18.74;46.20;101998.88;489013;28;932;-64
2021/04/18 00:04:28;;;;;;;12.02;6.35;;;;;;;18.74;46.76;101996.16;489165;28;997;-64
2021/04/18 00:04:43;;;;;;;12.17;6.00;;;;;;;18.75;46.79;101991.59;489273;28;871;-64
2021/04/18 00:04:57;;;;;;;12.68;6.38;;;;;;;18.75;46.94;101994.31;488959;28;944;-64
2021/04/18 00:05:13;;;;;;;12.57;6.40;;;;;;;18.74;47.01;101993.47;489221;28;895;-64
2021/04/18 00:05:29;;;;;;;11.43;6.10;;;;;;;18.74;46.63;102000.75;488969;28;1115;-64
2021/04/18 00:05:43;;;;;;;11.40;5.93;;;;;;;18.74;47.02;101989.88;489124;28;902;-64
2021/04/18 00:05:58;;;;;;;11.97;6.00;;;;;;;18.74;46.96;102000.75;489312;28;803;-64
2021/04/18 00:06:12;;;;;;;12.45;6.07;;;;;;;18.74;46.83;101992.59;489377;28;1053;-64
2021/04/18 00:06:27;;;;;;;13.43;6.13;;;;;;;18.73;46.81;101993.63;489437;28;850;-64
2021/04/18 00:06:41;;;;;;;13.02;6.20;;;;;;;18.73;46.72;101996.34;489230;28;1033;-64
2021/04/18 00:06:56;;;;;;;12.30;6.50;;;;;;;18.73;47.37;101997.19;489354;28;857;-64
2021/04/18 00:07:10;;;;;;;11.95;6.55;;;;;;;18.73;46.74;101991.75;489327;28;984;-64
2021/04/18 00:07:24;;;;;;;11.83;6.43;;;;;;;18.72;46.55;101998.19;489117;28;877;-64
2021/04/18 00:07:39;;;;;;;15.77;6.53;;;;;;;18.72;46.60;102000.06;489421;28;802;-64
2021/04/18 00:08:01;;;;;;;15.10;6.30;;;;;;;18.73;46.91;101993.63;489402;28;948;-64
2021/04/18 00:08:16;;;;;;;10.85;6.20;;;;;;;18.72;46.53;101994.63;485565;28;89403;-64
2021/04/18 00:08:30;;;;;;;12.00;6.40;;;;;;;18.72;46.82;101995.47;489268;28;1008;-64
2021/04/18 00:08:45;;;;;;;12.90;6.40;;;;;;;18.73;46.88;101999.03;489475;28;917;-64
2021/04/18 00:08:59;;;;;;;12.95;6.13;;;;;;;18.73;46.85;101999.03;489121;28;901;-64
2021/04/18 00:09:13;;;;;;;12.20;6.13;;;;;;;18.72;46.59;101998.19;489236;28;1004;-64
2021/04/18 00:09:28;;;;;;;10.90;6.18;;;;;;;18.73;46.59;101994.47;489353;28;1032;-64
2021/04/18 00:09:44;;;;;;;11.10;6.03;;;;;;;18.74;46.50;101998.88;489359;28;834;-64
2021/04/18 00:09:59;;;;;;;12.23;6.30;;;;;;;18.73;46.61;101999.03;489124;28;929;-64
2021/04/18 00:10:13;;;;;;;11.25;6.25;;;;;;;18.73;46.73;101993.63;489414;28;912;-63
2021/04/18 00:10:30;;;;;;;10.73;6.10;;;;;;;18.74;46.64;101995.31;489310;28;924;-64
2021/04/18 00:10:44;;;;;;;11.05;6.20;;;;;;;18.74;46.63;101993.47;489283;28;977;-63
2021/04/18 00:10:59;;;;;;;10.98;6.20;;;;;;;18.73;46.69;101994.47;489360;28;1910;-63
2021/04/18 00:11:14;;;;;;;11.37;6.20;;;;;;;18.73;46.96;101988.19;489283;28;814;-63
2021/04/18 00:11:30;;;;;;;14.95;6.53;;;;;;;18.73;46.78;101993.63;489229;28;870;-63
2021/04/18 00:11:44;;;;;;;14.75;6.80;;;;;;;18.73;46.79;101993.63;489409;28;850;-63
2021/04/18 00:11:59;;;;;;;11.15;6.57;;;;;;;18.72;46.83;101990.06;489412;28;969;-63
2021/04/18 00:12:13;;;;;;;11.37;6.00;;;;;;;18.73;46.98;101993.63;489362;28;949;-64
2021/04/18 00:12:28;;;;;;;13.63;6.05;;;;;;;18.73;46.92;101999.91;489265;28;998;-63
2021/04/18 00:12:42;;;;;;;14.60;6.40;;;;;;;18.72;46.98;101992.75;489354;28;885;-63
2021/04/18 00:12:57;;;;;;;13.38;6.30;;;;;;;18.71;46.73;101991.06;489327;28;984;-64
2021/04/18 00:13:14;;;;;;;13.45;6.38;;;;;;;18.72;46.90;101991.91;488946;28;834;-64
2021/04/18 00:13:28;;;;;;;12.75;6.50;;;;;;;18.72;46.85;101995.47;489439;28;1040;-64
2021/04/18 00:13:43;;;;;;;11.63;6.25;;;;;;;18.72;47.06;102000.91;489352;28;811;-63
2021/04/18 00:13:58;;;;;;;12.30;6.25;;;;;;;18.73;47.06;101994.47;489139;28;959;-63
2021/04/18 00:14:13;;;;;;;12.02;6.10;;;;;;;18.73;46.88;101996.34;489463;28;894;-64
2021/04/18 00:14:27;;;;;;;11.23;5.70;;;;;;;18.73;47.22;101991.75;489421;28;935;-63
2021/04/18 00:14:41;;;;;;;11.47;5.77;;;;;;;18.72;46.97;101992.75;489269;28;899;-63
2021/04/18 00:14:56;;;;;;;11.23;6.00;;;;;;;18.71;46.79;101991.06;489322;28;826;-64
2021/04/18 00:15:14;;;;;;;10.95;6.35;;;;;;;18.73;46.66;101993.63;489283;28;894;-64
2021/04/18 00:15:29;;;;;;;11.70;6.25;;;;;;;18.72;46.98;101987.34;488293;28;21189;-63
2021/04/18 00:15:44;;;;;;;12.13;5.93;;;;;;;18.74;46.82;101992.59;488621;28;907;-63
2021/04/18 00:15:58;;;;;;;11.75;6.30;;;;;;;18.74;46.78;101995.31;489240;28;1083;-63
2021/04/18 00:16:14;;;;;;;11.48;6.65;;;;;;;18.72;46.91;101991.91;489225;28;993;-64
2021/04/18 00:16:28;;;;;;;12.35;6.50;;;;;;;18.73;47.08;101999.91;489090;28;905;-63
2021/04/18 00:16:43;;;;;;;12.03;6.37;;;;;;;18.73;47.19;101988.19;489181;28;1044;-63
2021/04/18 00:16:57;;;;;;;11.70;6.07;;;;;;;18.73;47.26;101997.19;489295;28;834;-63
2021/04/18 00:17:11;;;;;;;11.70;5.83;;;;;;;18.73;47.26;101991.75;488808;28;882;-63
2021/04/18 00:17:26;;;;;;;10.65;5.80;;;;;;;18.73;47.09;101996.34;489277;28;901;-63
2021/04/18 00:17:41;;;;;;;11.10;5.80;;;;;;;18.72;47.02;101992.75;489328;28;870;-64
2021/04/18 00:17:55;;;;;;;11.80;6.05;;;;;;;18.71;46.92;101996.50;489338;28;889;-63
2021/04/18 00:18:10;;;;;;;11.80;6.40;;;;;;;18.73;46.92;101999.91;489276;28;874;-63
2021/04/18 00:18:25;;;;;;;11.73;6.45;;;;;;;18.72;46.89;101990.06;489299;28;890;-63
2021/04/18 00:18:40;;;;;;;11.60;6.43;;;;;;;18.73;47.33;101993.63;489393;28;878;-63
2021/04/18 00:18:54;;;;;;;10.38;6.10;;;;;;;18.72;46.95;101992.75;489203;28;965;-63
2021/04/18 00:19:09;;;;;;;9.35;6.03;;;;;;;18.72;46.90;101995.47;489367;28;870;-64
2021/04/18 00:19:23;;;;;;;11.23;6.50;;;;;;;18.73;47.10;101986.31;489268;28;878;-63
2021/04/18 00:19:38;;;;;;;12.02;6.30;;;;;;;18.72;46.98;101992.75;489247;28;858;-63
2021/04/18 00:19:52;;;;;;;11.07;6.00;;;;;;;18.73;47.08;101990.91;489326;28;1037;-64
2021/04/18 00:20:11;;;;;;;11.30;6.07;;;;;;;18.73;47.02;101990.91;489452;28;921;-64
2021/04/18 00:20:26;;;;;;;11.20;6.00;;;;;;;18.73;47.02;101990.91;488779;28;19047;-64
2021/04/18 00:20:40;;;;;;;10.95;6.07;;;;;;;18.73;47.14;101988.19;489013;28;949;-63
2021/04/18 00:20:56;;;;;;;10.85;6.03;;;;;;;18.72;47.08;101990.06;489484;28;902;-63
2021/04/18 00:21:10;;;;;;;10.82;5.93;;;;;;;18.72;47.15;101995.47;489334;28;849;-63
2021/04/18 00:21:25;;;;;;;11.38;6.18;;;;;;;18.71;46.88;101988.34;489119;28;982;-63
2021/04/18 00:21:39;;;;;;;11.77;6.47;;;;;;;18.72;47.13;101989.19;489396;28;834;-63
2021/04/18 00:21:53;;;;;;;11.00;6.35;;;;;;;18.72;46.88;101991.91;489337;28;989;-64
2021/04/18 00:22:08;;;;;;;10.57;6.17;;;;;;;18.72;46.91;101991.91;489127;28;1027;-64
2021/04/18 00:22:22;;;;;;;11.63;6.10;;;;;;;18.71;46.92;101992.94;489428;28;985;-64
2021/04/18 00:22:38;;;;;;;11.45;6.38;;;;;;;18.71;46.93;101984.78;489402;28;909;-64
2021/04/18 00:22:53;;;;;;;10.38;6.72;;;;;;;18.71;46.89;101990.22;489217;28;889;-64
2021/04/18 00:23:07;;;;;;;11.33;6.73;;;;;;;18.71;46.80;101990.22;488750;28;921;-64
2021/04/18 00:23:21;;;;;;;10.98;6.47;;;;;;;18.70;46.61;101992.06;489470;28;1001;-63
2021/04/18 00:23:36;;;;;;;11.60;6.60;;;;;;;18.72;47.10;101994.63;489186;28;838;-63
2021/04/18 00:23:50;;;;;;;11.80;7.03;;;;;;;18.72;46.63;101989.19;488979;28;946;-64
2021/04/18 00:24:05;;;;;;;11.03;6.83;;;;;;;18.73;46.60;101991.75;489176;28;1021;-64
2021/04/18 00:24:20;;;;;;;11.52;6.78;;;;;;;18.73;46.63;101988.19;489217;28;862;-63
2021/04/18 00:24:34;;;;;;;11.97;7.00;;;;;;;18.71;46.55;101985.63;489008;28;1215;-63
2021/04/18 00:24:48;;;;;;;12.60;7.30;;;;;;;18.73;46.62;101988.19;489085;28;1022;-64
2021/04/18 00:25:03;;;;;;;13.13;7.10;;;;;;;18.71;46.92;101991.06;489206;28;1218;-64
2021/04/18 00:25:19;;;;;;;11.95;6.80;;;;;;;18.70;46.98;101983.94;489070;28;1430;-63
2021/04/18 00:25:33;;;;;;;11.73;6.75;;;;;;;18.71;46.96;101985.63;489040;28;945;-63
2021/04/18 00:25:48;;;;;;;11.53;6.43;;;;;;;18.71;47.04;101980.22;489338;28;965;-64
2021/04/18 00:26:02;;;;;;;11.02;6.43;;;;;;;18.70;46.80;101980.38;489369;28;882;-64
2021/04/18 00:26:17;;;;;;;10.70;6.53;;;;;;;18.73;46.88;101985.47;489185;28;886;-63
2021/04/18 00:26:31;;;;;;;11.48;6.50;;;;;;;18.72;46.90;101989.19;489461;28;940;-64
2021/04/18 00:26:45;;;;;;;12.53;6.30;;;;;;;18.71;46.60;101984.78;489338;28;858;-64
2021/04/18 00:27:00;;;;;;;13.15;6.28;;;;;;;18.71;47.11;101985.63;489313;28;857;-63
2021/04/18 00:27:14;;;;;;;12.80;6.33;;;;;;;18.71;46.92;101982.94;489069;28;967;-63
2021/04/18 00:27:29;;;;;;;11.13;6.23;;;;;;;18.72;47.09;101984.63;489467;28;945;-64
2021/04/18 00:27:45;;;;;;;10.73;6.37;;;;;;;18.71;46.70;101982.94;489354;28;980;-64
2021/04/18 00:27:59;;;;;;;11.70;6.63;;;;;;;18.71;46.78;101985.63;489137;28;961;-63
2021/04/18 00:28:13;;;;;;;11.17;6.83;;;;;;;18.70;47.02;101983.94;489489;28;847;-64
2021/04/18 00:28:28;;;;;;;10.90;6.80;;;;;;;18.72;46.79;101986.50;489334;28;1089;-64
2021/04/18 00:28:42;;;;;;;11.13;6.70;;;;;;;18.71;46.86;101984.78;489042;28;938;-63
2021/04/18 00:28:57;;;;;;;10.63;6.68;;;;;;;18.71;46.97;101977.50;489299;28;960;-64
2021/04/18 00:29:11;;;;;;;10.70;6.60;;;;;;;18.72;46.75;101983.78;489334;28;854;-63
2021/04/18 00:29:25;;;;;;;12.23;6.78;;;;;;;18.70;47.06;101983.94;489431;28;941;-63
2021/04/18 00:29:40;;;;;;;12.33;6.60;;;;;;;18.70;47.04;101985.81;489087;28;988;-64
2021/04/18 00:29:54;;;;;;;12.27;6.47;;;;;;;18.69;46.93;101976.81;489219;28;965;-63
2021/04/18 00:30:12;;;;;;;11.70;6.43;;;;;;;18.70;47.14;101983.94;489338;28;969;-64
2021/04/18 00:30:26;;;;;;;10.52;6.40;;;;;;;18.69;46.90;101982.25;488072;28;19276;-64
2021/04/18 00:30:41;;;;;;;10.10;6.40;;;;;;;18.70;46.87;101983.09;489461;28;854;-64
2021/04/18 00:30:55;;;;;;;10.13;6.55;;;;;;;18.68;47.13;101988.66;489198;28;1981;-64
2021/04/18 00:31:10;;;;;;;11.10;6.60;;;;;;;18.69;47.12;101986.81;489055;28;985;-64
2021/04/18 00:31:25;;;;;;;11.50;6.47;;;;;;;18.67;46.64;101978.84;489369;28;846;-64
2021/04/18 00:31:39;;;;;;;11.67;6.30;;;;;;;18.67;46.97;101978.84;489364;28;860;-64
2021/04/18 00:31:53;;;;;;;11.52;6.47;;;;;;;18.67;47.15;101983.41;489201;28;913;-65
2021/04/18 00:32:08;;;;;;;10.47;6.30;;;;;;;18.66;46.97;101979.84;488903;28;1287;-64
2021/04/18 00:32:22;;;;;;;10.35;6.20;;;;;;;18.67;46.96;101986.13;489167;28;972;-64
2021/04/18 00:32:38;;;;;;;11.57;6.40;;;;;;;18.67;47.12;101983.41;489247;28;910;-64
2021/04/18 00:32:52;;;;;;;11.30;6.13;;;;;;;18.66;47.08;101982.56;488999;28;845;-64
2021/04/18 00:33:07;;;;;;;10.60;5.87;;;;;;;18.65;47.10;101983.56;489023;28;1001;-65
2021/04/18 00:33:21;;;;;;;12.10;6.10;;;;;;;18.66;47.04;101982.56;489223;28;826;-65
2021/04/18 00:33:35;;;;;;;13.17;6.20;;;;;;;18.66;46.85;101979.84;489064;28;858;-64
2021/04/18 00:33:50;;;;;;;11.60;6.13;;;;;;;18.67;47.15;101980.69;489187;28;884;-65
2021/04/18 00:34:04;;;;;;;11.10;6.50;;;;;;;18.67;46.92;101984.25;489130;28;1017;-64
2021/04/18 00:34:19;;;;;;;11.37;6.57;;;;;;;18.66;47.15;101984.41;489429;28;728;-64
2021/04/18 00:34:33;;;;;;;10.07;6.25;;;;;;;18.67;46.93;101980.69;489080;28;1077;-64
2021/04/18 00:34:48;;;;;;;10.30;6.40;;;;;;;18.66;47.12;101979.84;489475;28;838;-64
2021/04/18 00:35:03;;;;;;;11.70;6.80;;;;;;;18.66;46.94;101984.41;489025;28;1501;-64
2021/04/18 00:35:20;;;;;;;11.05;6.70;;;;;;;18.66;47.00;101984.41;488938;28;949;-64
2021/04/18 00:35:34;;;;;;;10.00;6.30;;;;;;;18.64;46.93;101981.88;488993;28;882;-64
2021/04/18 00:35:49;;;;;;;10.38;6.30;;;;;;;18.65;47.09;101980.84;489167;28;1016;-64
2021/04/18 00:36:04;;;;;;;10.57;6.30;;;;;;;18.65;47.05;101985.44;488701;28;1345;-64
2021/04/18 00:36:19;;;;;;;10.82;6.30;;;;;;;18.65;46.92;101982.72;489165;28;886;-65
2021/04/18 00:36:33;;;;;;;11.70;6.40;;;;;;;18.65;46.86;101974.56;489259;28;902;-64
2021/04/18 00:36:47;;;;;;;11.40;6.50;;;;;;;18.64;46.88;101979.16;489153;28;854;-65
2021/04/18 00:37:02;;;;;;;10.93;6.63;;;;;;;18.64;47.22;101987.28;488964;28;899;-64
2021/04/18 00:37:16;;;;;;;11.37;6.30;;;;;;;18.64;47.12;101981.00;489096;28;921;-65
2021/04/18 00:37:30;;;;;;;11.85;6.20;;;;;;;18.62;46.99;101983.06;489214;28;894;-64
2021/04/18 00:37:46;;;;;;;12.33;6.67;;;;;;;18.63;46.94;101980.16;488651;28;858;-64
2021/04/18 00:38:00;;;;;;;11.60;6.75;;;;;;;18.62;47.18;101974.94;489250;28;1077;-64
2021/04/18 00:38:15;;;;;;;10.15;6.43;;;;;;;18.65;46.92;101982.72;489298;28;941;-64
2021/04/18 00:38:29;;;;;;;11.33;6.87;;;;;;;18.63;46.91;101980.16;489367;28;845;-64
2021/04/18 00:38:43;;;;;;;12.55;7.50;;;;;;;18.63;46.72;101976.59;489041;28;1064;-65
2021/04/18 00:38:58;;;;;;;12.50;7.73;;;;;;;18.64;46.98;101981.88;489384;28;802;-64
2021/04/18 00:39:12;;;;;;;12.80;7.30;;;;;;;18.65;46.93;101985.44;489243;28;938;-64
2021/04/18 00:39:27;;;;;;;12.20;7.00;;;;;;;18.65;46.88;101985.44;489220;28;873;-64
2021/04/18 00:39:41;;;;;;;11.70;6.63;;;;;;;18.63;47.13;101976.59;489394;28;886;-64
2021/04/18 00:39:56;;;;;;;12.15;6.75;;;;;;;18.64;46.96;101987.28;489306;28;1015;-64
2021/04/18 00:40:13;;;;;;;12.13;6.87;;;;;;;18.64;46.94;101983.72;489071;28;949;-64
2021/04/18 00:40:27;;;;;;;12.63;6.93;;;;;;;18.64;47.00;101981.00;488683;28;20297;-64
2021/04/18 00:40:42;;;;;;;13.23;7.43;;;;;;;18.61;47.08;101971.38;489347;28;977;-64
2021/04/18 00:40:58;;;;;;;13.55;7.70;;;;;;;18.61;47.01;101979.50;489315;28;1000;-64
2021/04/18 00:41:12;;;;;;;13.18;7.60;;;;;;;18.61;47.15;101981.38;489082;28;952;-64
2021/04/18 00:41:26;;;;;;;13.83;7.70;;;;;;;18.59;46.96;101978.81;489327;28;952;-64
2021/04/18 00:41:41;;;;;;;15.30;7.80;;;;;;;18.58;46.95;101977.06;489398;28;822;-64
2021/04/18 00:41:56;;;;;;;15.38;7.70;;;;;;;18.60;46.75;101979.66;489105;28;791;-64
2021/04/18 00:42:10;;;;;;;15.15;7.60;;;;;;;18.60;46.96;101977.81;489364;28;846;-64
2021/04/18 00:42:25;;;;;;;15.17;7.50;;;;;;;18.62;46.92;101974.94;489270;28;1040;-64
2021/04/18 00:42:40;;;;;;;14.30;7.63;;;;;;;18.59;46.85;101978.81;489179;28;893;-64
2021/04/18 00:42:54;;;;;;;14.18;7.65;;;;;;;18.59;47.11;101981.53;489364;28;1233;-64
2021/04/18 00:43:09;;;;;;;12.37;7.23;;;;;;;18.60;47.07;101979.66;489125;28;815;-64
2021/04/18 00:43:24;;;;;;;10.50;6.93;;;;;;;18.59;47.12;101975.22;489358;28;962;-64
2021/04/18 00:43:43;;;;;;;11.57;7.10;;;;;;;18.60;47.10;101982.38;489142;28;869;-64
2021/04/18 00:43:57;;;;;;;13.82;7.82;;;;;;;18.61;46.69;101979.50;487859;28;42668;-64
2021/04/18 00:44:11;;;;;;;15.97;8.07;;;;;;;18.61;46.95;101978.66;489342;28;985;-64
2021/04/18 00:44:26;;;;;;;14.77;7.45;;;;;;;18.61;47.07;101974.06;489028;28;995;-64
2021/04/18 00:44:41;;;;;;;13.43;7.30;;;;;;;18.61;46.93;101979.50;489422;28;854;-64
2021/04/18 00:44:55;;;;;;;13.73;7.50;;;;;;;18.60;47.02;101975.09;489382;28;866;-64
2021/04/18 00:45:11;;;;;;;13.60;7.20;;;;;;;18.60;47.23;101976.94;488626;28;953;-64
2021/04/18 00:45:25;;;;;;;12.88;7.43;;;;;;;18.59;46.80;101975.22;489333;28;1028;-64
2021/04/18 00:45:40;;;;;;;12.88;7.40;;;;;;;18.59;46.95;101975.22;489350;28;938;-64
2021/04/18 00:45:54;;;;;;;13.53;7.40;;;;;;;18.57;47.02;101967.25;489118;28;862;-64
2021/04/18 00:46:10;;;;;;;12.25;7.40;;;;;;;18.58;47.17;101973.50;489321;28;886;-64
2021/04/18 00:46:24;;;;;;;10.55;7.07;;;;;;;18.58;47.07;101977.06;489220;28;878;-64
2021/04/18 00:46:39;;;;;;;11.03;7.23;;;;;;;18.58;46.91;101968.94;489360;28;834;-64
2021/04/18 00:46:54;;;;;;;11.60;7.25;;;;;;;18.60;46.83;101974.25;489149;28;826;-64
2021/04/18 00:47:08;;;;;;;10.93;6.90;;;;;;;18.58;46.89;101970.81;489134;28;906;-64
2021/04/18 00:47:23;;;;;;;11.70;6.80;;;;;;;18.60;46.91;101979.66;489420;28;918;-64
2021/04/18 00:47:45;;;;;;;13.43;7.00;;;;;;;18.59;47.07;101976.09;489031;28;949;-64
2021/04/18 00:48:01;;;;;;;11.27;7.15;;;;;;;18.59;46.78;101975.22;486953;28;65569;-64
2021/04/18 00:48:16;;;;;;;10.95;7.05;;;;;;;18.60;46.87;101976.94;489049;28;922;-64
2021/04/18 00:48:30;;;;;;;11.35;6.90;;;;;;;18.59;47.04;101978.81;488908;28;799;-65
2021/04/18 00:48:45;;;;;;;11.40;6.83;;;;;;;18.58;46.97;101973.50;489167;28;894;-64
2021/04/18 00:49:00;;;;;;;12.32;7.10;;;;;;;18.58;46.78;101973.50;489083;28;954;-64
2021/04/18 00:49:14;;;;;;;12.55;7.20;;;;;;;18.59;46.91;101969.78;488859;28;815;-64
2021/04/18 00:49:28;;;;;;;10.90;6.93;;;;;;;18.57;47.04;101972.66;489219;28;837;-64
2021/04/18 00:49:45;;;;;;;10.73;7.20;;;;;;;18.56;46.98;101970.97;489348;28;858;-64
2021/04/18 00:50:00;;;;;;;10.35;7.15;;;;;;;18.56;47.05;101972.81;489310;28;846;-64
2021/04/18 00:50:24;;;;;;;11.48;7.20;;;;;;;18.54;47.16;101970.25;487376;28;866;-64
2021/04/18 00:50:39;;;;;;;13.48;7.38;;;;;;;18.55;47.10;101969.25;485044;28;65220;-64
2021/04/18 00:50:54;;;;;;;13.00;7.20;;;;;;;18.55;47.01;101971.13;487525;28;1013;-64
2021/04/18 00:51:10;;;;;;;12.47;7.07;;;;;;;18.55;47.12;101969.25;487275;28;1963;-64
2021/04/18 00:51:24;;;;;;;11.50;7.22;;;;;;;18.55;46.91;101973.84;487385;28;957;-64
2021/04/18 00:51:38;;;;;;;11.83;7.23;;;;;;;18.55;47.05;101974.69;487556;28;894;-64
2021/04/18 00:51:53;;;;;;;11.63;7.30;;;;;;;18.54;47.02;101967.56;487400;28;814;-64
2021/04/18 00:52:07;;;;;;;12.77;7.67;;;;;;;18.55;46.90;101973.84;487429;28;867;-64
2021/04/18 00:52:22;;;;;;;13.10;7.95;;;;;;;18.54;47.15;101975.69;487336;28;999;-64
2021/04/18 00:52:37;;;;;;;12.67;7.77;;;;;;;18.53;47.02;101973.13;486930;28;981;-64
2021/04/18 00:52:52;;;;;;;12.30;7.72;;;;;;;18.53;46.91;101975.84;487528;28;917;-64
2021/04/18 00:53:08;;;;;;;12.75;8.02;;;;;;;18.52;47.14;101972.28;487242;28;835;-64
2021/04/18 00:53:22;;;;;;;13.63;8.00;;;;;;;18.54;47.00;101977.56;487388;28;878;-64
2021/04/18 00:53:37;;;;;;;13.98;7.85;;;;;;;18.52;46.99;101968.72;487417;28;905;-64
2021/04/18 00:53:51;;;;;;;14.73;7.78;;;;;;;18.53;46.87;101975.84;487180;28;1381;-64
2021/04/18 00:54:06;;;;;;;14.53;7.60;;;;;;;18.53;47.10;101974.00;487238;28;953;-64
2021/04/18 00:54:20;;;;;;;13.47;7.60;;;;;;;18.54;47.04;101972.97;487196;28;1145;-64
2021/04/18 00:54:34;;;;;;;14.27;7.90;;;;;;;18.54;46.73;101975.69;487270;28;832;-64
2021/04/18 00:54:49;;;;;;;14.20;7.90;;;;;;;18.53;47.20;101974.00;487208;28;894;-64
2021/04/18 00:55:05;;;;;;;14.77;8.00;;;;;;;18.53;47.09;101976.69;487379;28;906;-64
2021/04/18 00:55:24;;;;;;;14.82;8.10;;;;;;;18.51;47.07;101973.31;487167;28;855;-64
2021/04/18 00:55:42;;;;;;;14.65;7.80;;;;;;;18.52;47.17;101977.72;485888;28;43285;-64
2021/04/18 00:55:56;;;;;;;14.13;7.88;;;;;;;18.51;47.12;101970.59;486844;28;18623;-64
2021/04/18 00:56:11;;;;;;;13.30;7.87;;;;;;;18.51;47.10;101970.59;487192;28;1181;-64
2021/04/18 00:56:25;;;;;;;13.55;8.02;;;;;;;18.50;47.09;101972.44;487143;28;843;-63
2021/04/18 00:56:40;;;;;;;15.40;8.40;;;;;;;18.51;47.13;101970.59;487327;28;902;-64
2021/04/18 00:56:54;;;;;;;16.85;8.73;;;;;;;18.51;47.01;101976.00;487234;28;1036;-64
2021/04/18 00:57:09;;;;;;;13.77;8.10;;;;;;;18.52;47.06;101968.72;487028;28;998;-64
2021/04/18 00:57:23;;;;;;;12.50;7.80;;;;;;;18.53;47.00;101975.84;487237;28;842;-64
2021/04/18 00:57:38;;;;;;;13.67;7.93;;;;;;;18.50;47.16;101972.44;487274;28;850;-64
2021/04/18 00:57:54;;;;;;;12.82;7.72;;;;;;;18.50;47.23;101971.59;487268;28;897;-64
2021/04/18 00:58:10;;;;;;;12.30;7.82;;;;;;;18.50;47.15;101968.88;487358;28;917;-64
2021/04/18 00:58:24;;;;;;;13.32;8.15;;;;;;;18.52;47.04;101975.00;487413;28;922;-64
2021/04/18 00:58:39;;;;;;;14.83;8.23;;;;;;;18.50;47.01;101972.44;487407;28;985;-64
2021/04/18 00:58:54;;;;;;;15.15;8.23;;;;;;;18.51;47.36;101970.59;487331;28;866;-64
2021/04/18 00:59:09;;;;;;;14.73;8.65;;;;;;;18.50;47.09;101967.03;487239;28;839;-64
2021/04/18 00:59:23;;;;;;;14.15;8.48;;;;;;;18.50;47.27;101972.44;487336;28;1125;-64
2021/04/18 00:59:37;;;;;;;13.33;8.00;;;;;;;18.50;47.08;101969.72;487379;28;940;-64
2021/04/18 00:59:52;;;;;;;13.25;7.75;;;;;;;18.49;47.14;101968.03;487612;28;822;-64
2021/04/18 01:00:08;;;;;;;13.33;7.70;;;;;;;18.51;47.22;101970.59;487033;28;818;-64
2021/04/18 01:00:23;;;;;;;12.88;7.80;;;;;;;18.50;47.59;101972.44;487196;28;1222;-64
2021/04/18 01:00:39;;;;;;;12.70;7.55;;;;;;;18.49;47.30;101970.75;487452;28;899;-64
2021/04/18 01:00:53;;;;;;;13.70;7.60;;;;;;;18.49;46.86;101970.75;487483;28;914;-64
2021/04/18 01:01:08;;;;;;;14.40;7.70;;;;;;;18.50;47.21;101971.59;487133;28;882;-64
2021/04/18 01:01:22;;;;;;;14.63;7.80;;;;;;;18.50;47.15;101969.72;487348;28;960;-64
2021/04/18 01:01:37;;;;;;;13.85;7.85;;;;;;;18.50;47.33;101968.88;487437;28;902;-64
2021/04/18 01:01:51;;;;;;;12.00;7.80;;;;;;;18.49;47.23;101964.47;487468;28;921;-64
2021/04/18 01:02:06;;;;;;;11.30;7.67;;;;;;;18.49;47.49;101969.91;487333;28;955;-64
2021/04/18 01:02:20;;;;;;;12.43;7.90;;;;;;;18.49;47.11;101972.59;487505;28;865;-64
2021/04/18 01:02:35;;;;;;;13.15;7.95;;;;;;;18.46;47.34;101971.06;487473;28;1032;-64
2021/04/18 01:02:49;;;;;;;12.25;7.97;;;;;;;18.48;47.23;101970.91;487389;28;944;-64
2021/04/18 01:03:06;;;;;;;12.60;8.40;;;;;;;18.47;47.14;101969.19;487287;28;874;-64
2021/04/18 01:03:20;;;;;;;13.48;8.20;;;;;;;18.44;47.29;101959.53;487363;28;879;-64
2021/04/18 01:03:35;;;;;;;13.57;7.87;;;;;;;18.46;47.11;101962.94;487241;28;878;-63
2021/04/18 01:03:49;;;;;;;13.67;8.10;;;;;;;18.47;47.38;101963.78;487381;28;822;-64
2021/04/18 01:04:04;;;;;;;14.90;8.20;;;;;;;18.47;47.35;101969.19;487384;28;914;-64
2021/04/18 01:04:19;;;;;;;14.82;7.82;;;;;;;18.46;47.17;101965.63;487330;28;922;-64
2021/04/18 01:04:33;;;;;;;13.63;7.68;;;;;;;18.46;47.31;101962.94;487211;28;921;-64
2021/04/18 01:04:47;;;;;;;13.43;7.50;;;;;;;18.46;47.33;101964.78;487489;28;846;-64
2021/04/18 01:05:04;;;;;;;13.40;7.50;;;;;;;18.46;47.23;101962.94;487390;28;973;-64
2021/04/18 01:05:18;;;;;;;13.63;7.82;;;;;;;18.47;47.27;101964.63;487188;28;950;-64
2021/04/18 01:05:34;;;;;;;13.10;7.70;;;;;;;18.48;47.41;101965.47;487167;28;783;-64
2021/04/18 01:05:48;;;;;;;13.00;7.43;;;;;;;18.46;47.21;101960.22;487514;28;941;-64
2021/04/18 01:06:03;;;;;;;12.83;7.30;;;;;;;18.48;47.34;101966.34;487109;28;1350;-64
2021/04/18 01:06:18;;;;;;;11.90;7.35;;;;;;;18.48;47.16;101963.63;487258;28;938;-64
2021/04/18 01:06:32;;;;;;;12.10;7.50;;;;;;;18.48;47.10;101958.19;487271;28;898;-64
2021/04/18 01:06:47;;;;;;;12.40;7.67;;;;;;;18.49;47.08;101968.03;487283;28;1015;-64
2021/04/18 01:07:01;;;;;;;11.10;7.37;;;;;;;18.50;47.00;101960.75;487214;28;1104;-64
2021/04/18 01:07:15;;;;;;;11.03;7.13;;;;;;;18.49;47.14;101957.19;486989;28;1003;-64
2021/04/18 01:07:30;;;;;;;12.35;7.43;;;;;;;18.49;47.26;101959.91;486701;28;803;-64
2021/04/18 01:07:45;;;;;;;13.30;7.60;;;;;;;18.49;47.34;101962.63;487226;28;870;-64
2021/04/18 01:08:00;;;;;;;13.18;7.28;;;;;;;18.48;47.46;101963.63;487222;28;1350;-64
2021/04/18 01:08:14;;;;;;;13.45;7.18;;;;;;;18.48;47.35;101960.06;487479;28;926;-64
2021/04/18 01:08:29;;;;;;;13.70;7.50;;;;;;;18.48;47.11;101962.78;487270;28;1134;-64
2021/04/18 01:08:43;;;;;;;13.30;7.60;;;;;;;18.49;47.27;101957.19;487357;28;981;-64
2021/04/18 01:08:59;;;;;;;12.07;7.30;;;;;;;18.47;47.30;101961.91;487441;28;953;-63
2021/04/18 01:09:13;;;;;;;12.02;7.40;;;;;;;18.47;47.49;101956.50;487135;28;928;-64
2021/04/18 01:09:30;;;;;;;13.82;7.50;;;;;;;18.47;47.32;101956.50;486976;28;1456;-64
2021/04/18 01:09:44;;;;;;;12.82;7.57;;;;;;;18.48;47.16;101957.34;487273;28;953;-64
2021/04/18 01:09:59;;;;;;;10.90;7.35;;;;;;;18.48;47.21;101954.63;487242;28;985;-63
2021/04/18 01:10:16;;;;;;;10.90;7.32;;;;;;;18.48;47.18;101954.63;487240;28;933;-64
2021/04/18 01:10:31;;;;;;;11.05;7.32;;;;;;;18.47;47.45;101948.34;487163;28;1041;-64
2021/04/18 01:10:45;;;;;;;11.73;7.30;;;;;;;18.45;47.49;101953.09;487195;28;1021;-64